sensor_id;sensor_type;location;lat;lon;timestamp;P1;durP1;ratioP1;P2;durP2;ratioP2
51828;SDS011;37881;48.024;8.774;2022-08-21T00:01:41;36.38;;;4.32;;
51828;SDS011;37881;48.024;8.774;2022-08-21T00:04:09;17.95;;;2.60;;
51828;SDS011;37881;48.024;8.774;2022-08-21T00:06:40;36.00;;;2.97;;
51828;SDS011;37881;48.024;8.774;2022-08-21T00:09:07;29.00;;;2.90;;
51828;SDS011;37881;48.024;8.774;2022-08-21T00:11:35;127.97;;;4.80;;
51828;SDS011;37881;48.024;8.774;2022-08-21T00:14:04;34.00;;;3.88;;
51828;SDS011;37881;48.024;8.774;2022-08-21T00:16:32;28.67;;;2.78;;
51828;SDS011;37881;48.024;8.774;2022-08-21T00:18:59;33.92;;;2.60;;
51828;SDS011;37881;48.024;8.774;2022-08-21T00:21:25;78.63;;;6.32;;
51828;SDS011;37881;48.024;8.774;2022-08-21T00:23:52;20.20;;;5.30;;
51828;SDS011;37881;48.024;8.774;2022-08-21T00:26:19;14.40;;;2.80;;
51828;SDS011;37881;48.024;8.774;2022-08-21T00:28:46;10.63;;;2.60;;
51828;SDS011;37881;48.024;8.774;2022-08-21T00:31:15;39.88;;;2.40;;
51828;SDS011;37881;48.024;8.774;2022-08-21T00:33:42;15.13;;;2.25;;
51828;SDS011;37881;48.024;8.774;2022-08-21T00:36:09;41.90;;;2.60;;
51828;SDS011;37881;48.024;8.774;2022-08-21T00:38:37;27.67;;;2.33;;
51828;SDS011;37881;48.024;8.774;2022-08-21T00:41:05;54.53;;;2.90;;
51828;SDS011;37881;48.024;8.774;2022-08-21T00:43:53;17.92;;;2.03;;
51828;SDS011;37881;48.024;8.774;2022-08-21T00:46:21;16.70;;;2.45;;
51828;SDS011;37881;48.024;8.774;2022-08-21T00:48:53;45.00;;;2.63;;
51828;SDS011;37881;48.024;8.774;2022-08-21T00:51:30;18.98;;;2.30;;
51828;SDS011;37881;48.024;8.774;2022-08-21T00:54:04;43.10;;;2.60;;
51828;SDS011;37881;48.024;8.774;2022-08-21T00:56:45;44.00;;;2.50;;
51828;SDS011;37881;48.024;8.774;2022-08-21T00:59:16;138.65;;;3.67;;
51828;SDS011;37881;48.024;8.774;2022-08-21T01:01:45;65.23;;;8.93;;
51828;SDS011;37881;48.024;8.774;2022-08-21T01:04:12;68.50;;;32.10;;
51828;SDS011;37881;48.024;8.774;2022-08-21T01:06:39;49.22;;;3.92;;
51828;SDS011;37881;48.024;8.774;2022-08-21T01:09:06;24.98;;;3.10;;
51828;SDS011;37881;48.024;8.774;2022-08-21T01:11:33;42.95;;;2.70;;
51828;SDS011;37881;48.024;8.774;2022-08-21T01:13:59;14.33;;;2.53;;
51828;SDS011;37881;48.024;8.774;2022-08-21T01:16:27;43.42;;;2.63;;
51828;SDS011;37881;48.024;8.774;2022-08-21T01:18:55;48.10;;;3.08;;
51828;SDS011;37881;48.024;8.774;2022-08-21T01:21:22;28.25;;;2.60;;
51828;SDS011;37881;48.024;8.774;2022-08-21T01:23:54;32.42;;;2.80;;
51828;SDS011;37881;48.024;8.774;2022-08-21T01:26:23;19.93;;;2.27;;
51828;SDS011;37881;48.024;8.774;2022-08-21T01:29:13;122.43;;;3.70;;
51828;SDS011;37881;48.024;8.774;2022-08-21T01:31:49;158.32;;;4.05;;
51828;SDS011;37881;48.024;8.774;2022-08-21T01:34:16;43.88;;;2.40;;
51828;SDS011;37881;48.024;8.774;2022-08-21T01:36:44;83.20;;;2.85;;
51828;SDS011;37881;48.024;8.774;2022-08-21T01:39:12;15.37;;;1.93;;
51828;SDS011;37881;48.024;8.774;2022-08-21T01:41:41;49.22;;;2.50;;
51828;SDS011;37881;48.024;8.774;2022-08-21T01:44:07;30.90;;;2.10;;
51828;SDS011;37881;48.024;8.774;2022-08-21T01:46:34;42.42;;;2.38;;
51828;SDS011;37881;48.024;8.774;2022-08-21T01:49:01;59.97;;;2.80;;
51828;SDS011;37881;48.024;8.774;2022-08-21T01:51:29;21.90;;;2.47;;
51828;SDS011;37881;48.024;8.774;2022-08-21T01:53:55;34.10;;;2.60;;
51828;SDS011;37881;48.024;8.774;2022-08-21T01:56:22;10.35;;;2.22;;
51828;SDS011;37881;48.024;8.774;2022-08-21T01:58:51;10.30;;;2.35;;
51828;SDS011;37881;48.024;8.774;2022-08-21T02:01:17;36.13;;;2.70;;
51828;SDS011;37881;48.024;8.774;2022-08-21T02:03:44;31.20;;;2.40;;
51828;SDS011;37881;48.024;8.774;2022-08-21T02:06:12;38.47;;;2.33;;
51828;SDS011;37881;48.024;8.774;2022-08-21T02:08:44;15.48;;;2.10;;
51828;SDS011;37881;48.024;8.774;2022-08-21T02:11:11;47.53;;;2.30;;
51828;SDS011;37881;48.024;8.774;2022-08-21T02:13:38;10.63;;;2.13;;
51828;SDS011;37881;48.024;8.774;2022-08-21T02:16:05;67.60;;;2.57;;
51828;SDS011;37881;48.024;8.774;2022-08-21T02:18:33;24.38;;;1.95;;
51828;SDS011;37881;48.024;8.774;2022-08-21T02:21:00;121.97;;;3.33;;
51828;SDS011;37881;48.024;8.774;2022-08-21T02:23:28;59.10;;;3.08;;
51828;SDS011;37881;48.024;8.774;2022-08-21T02:25:56;78.07;;;3.03;;
51828;SDS011;37881;48.024;8.774;2022-08-21T02:28:24;38.23;;;2.67;;
51828;SDS011;37881;48.024;8.774;2022-08-21T02:30:53;100.47;;;3.80;;
51828;SDS011;37881;48.024;8.774;2022-08-21T02:33:22;29.15;;;2.15;;
51828;SDS011;37881;48.024;8.774;2022-08-21T02:35:49;170.65;;;4.78;;
51828;SDS011;37881;48.024;8.774;2022-08-21T02:38:18;72.88;;;3.38;;
51828;SDS011;37881;48.024;8.774;2022-08-21T02:40:48;88.07;;;3.23;;
51828;SDS011;37881;48.024;8.774;2022-08-21T02:43:17;54.67;;;2.47;;
51828;SDS011;37881;48.024;8.774;2022-08-21T02:45:46;44.78;;;2.70;;
51828;SDS011;37881;48.024;8.774;2022-08-21T02:48:15;59.25;;;2.60;;
51828;SDS011;37881;48.024;8.774;2022-08-21T02:50:59;55.95;;;3.25;;
51828;SDS011;37881;48.024;8.774;2022-08-21T02:53:28;43.77;;;2.77;;
51828;SDS011;37881;48.024;8.774;2022-08-21T02:55:56;18.73;;;1.98;;
51828;SDS011;37881;48.024;8.774;2022-08-21T02:58:25;8.75;;;2.22;;
51828;SDS011;37881;48.024;8.774;2022-08-21T03:00:55;15.55;;;2.00;;
51828;SDS011;37881;48.024;8.774;2022-08-21T03:03:21;50.38;;;2.60;;
51828;SDS011;37881;48.024;8.774;2022-08-21T03:05:48;31.80;;;1.93;;
51828;SDS011;37881;48.024;8.774;2022-08-21T03:08:16;6.78;;;1.63;;
51828;SDS011;37881;48.024;8.774;2022-08-21T03:10:45;6.50;;;1.85;;
51828;SDS011;37881;48.024;8.774;2022-08-21T03:13:14;52.83;;;5.13;;
51828;SDS011;37881;48.024;8.774;2022-08-21T03:15:42;85.13;;;3.97;;
51828;SDS011;37881;48.024;8.774;2022-08-21T03:18:09;37.97;;;2.23;;
51828;SDS011;37881;48.024;8.774;2022-08-21T03:20:37;27.10;;;2.40;;
51828;SDS011;37881;48.024;8.774;2022-08-21T03:23:06;62.55;;;3.25;;
51828;SDS011;37881;48.024;8.774;2022-08-21T03:25:42;86.35;;;4.57;;
51828;SDS011;37881;48.024;8.774;2022-08-21T03:28:10;141.88;;;5.07;;
51828;SDS011;37881;48.024;8.774;2022-08-21T03:30:43;125.57;;;6.40;;
51828;SDS011;37881;48.024;8.774;2022-08-21T03:33:11;20.52;;;3.13;;
51828;SDS011;37881;48.024;8.774;2022-08-21T03:35:44;23.88;;;3.95;;
51828;SDS011;37881;48.024;8.774;2022-08-21T03:38:21;12.60;;;2.97;;
51828;SDS011;37881;48.024;8.774;2022-08-21T03:40:52;41.72;;;3.95;;
51828;SDS011;37881;48.024;8.774;2022-08-21T03:43:19;39.63;;;2.40;;
51828;SDS011;37881;48.024;8.774;2022-08-21T03:45:46;21.85;;;1.83;;
51828;SDS011;37881;48.024;8.774;2022-08-21T03:48:13;26.70;;;2.72;;
51828;SDS011;37881;48.024;8.774;2022-08-21T03:50:41;10.00;;;1.67;;
51828;SDS011;37881;48.024;8.774;2022-08-21T03:53:10;16.85;;;1.92;;
51828;SDS011;37881;48.024;8.774;2022-08-21T03:55:46;127.90;;;4.03;;
51828;SDS011;37881;48.024;8.774;2022-08-21T03:58:15;155.13;;;4.65;;
51828;SDS011;37881;48.024;8.774;2022-08-21T04:00:44;82.60;;;2.80;;
51828;SDS011;37881;48.024;8.774;2022-08-21T04:03:11;53.13;;;3.22;;
51828;SDS011;37881;48.024;8.774;2022-08-21T04:05:38;33.40;;;2.40;;
51828;SDS011;37881;48.024;8.774;2022-08-21T04:08:05;21.13;;;2.10;;
51828;SDS011;37881;48.024;8.774;2022-08-21T04:10:33;35.55;;;2.30;;
51828;SDS011;37881;48.024;8.774;2022-08-21T04:13:01;86.82;;;3.03;;
51828;SDS011;37881;48.024;8.774;2022-08-21T04:15:28;68.85;;;3.17;;
51828;SDS011;37881;48.024;8.774;2022-08-21T04:17:55;104.68;;;7.55;;
51828;SDS011;37881;48.024;8.774;2022-08-21T04:20:22;18.83;;;3.07;;
51828;SDS011;37881;48.024;8.774;2022-08-21T04:22:49;32.08;;;3.50;;
51828;SDS011;37881;48.024;8.774;2022-08-21T04:25:17;101.00;;;5.55;;
51828;SDS011;37881;48.024;8.774;2022-08-21T04:27:46;45.75;;;3.03;;
51828;SDS011;37881;48.024;8.774;2022-08-21T04:30:14;30.23;;;2.13;;
51828;SDS011;37881;48.024;8.774;2022-08-21T04:32:43;71.13;;;2.67;;
51828;SDS011;37881;48.024;8.774;2022-08-21T04:35:11;49.92;;;2.20;;
51828;SDS011;37881;48.024;8.774;2022-08-21T04:37:38;13.52;;;1.85;;
51828;SDS011;37881;48.024;8.774;2022-08-21T04:40:08;46.85;;;2.25;;
51828;SDS011;37881;48.024;8.774;2022-08-21T04:42:44;118.45;;;3.90;;
51828;SDS011;37881;48.024;8.774;2022-08-21T04:45:23;25.70;;;2.73;;
51828;SDS011;37881;48.024;8.774;2022-08-21T04:47:56;82.40;;;3.63;;
51828;SDS011;37881;48.024;8.774;2022-08-21T04:50:27;69.20;;;6.30;;
51828;SDS011;37881;48.024;8.774;2022-08-21T04:53:02;48.53;;;5.35;;
51828;SDS011;37881;48.024;8.774;2022-08-21T04:55:30;102.63;;;6.28;;
51828;SDS011;37881;48.024;8.774;2022-08-21T04:57:57;63.63;;;3.37;;
51828;SDS011;37881;48.024;8.774;2022-08-21T05:00:25;53.22;;;2.70;;
51828;SDS011;37881;48.024;8.774;2022-08-21T05:02:52;34.90;;;2.80;;
51828;SDS011;37881;48.024;8.774;2022-08-21T05:05:23;24.13;;;2.20;;
51828;SDS011;37881;48.024;8.774;2022-08-21T05:07:50;51.63;;;2.33;;
51828;SDS011;37881;48.024;8.774;2022-08-21T05:10:19;35.43;;;2.40;;
51828;SDS011;37881;48.024;8.774;2022-08-21T05:12:46;54.60;;;3.05;;
51828;SDS011;37881;48.024;8.774;2022-08-21T05:15:12;19.90;;;2.33;;
51828;SDS011;37881;48.024;8.774;2022-08-21T05:17:40;10.20;;;1.80;;
51828;SDS011;37881;48.024;8.774;2022-08-21T05:20:08;6.68;;;1.90;;
51828;SDS011;37881;48.024;8.774;2022-08-21T05:22:36;9.87;;;1.97;;
51828;SDS011;37881;48.024;8.774;2022-08-21T05:25:04;42.85;;;3.10;;
51828;SDS011;37881;48.024;8.774;2022-08-21T05:27:36;17.85;;;2.00;;
51828;SDS011;37881;48.024;8.774;2022-08-21T05:30:05;25.83;;;2.08;;
51828;SDS011;37881;48.024;8.774;2022-08-21T05:32:35;15.85;;;2.00;;
51828;SDS011;37881;48.024;8.774;2022-08-21T05:35:03;15.97;;;1.73;;
51828;SDS011;37881;48.024;8.774;2022-08-21T05:37:31;15.38;;;1.60;;
51828;SDS011;37881;48.024;8.774;2022-08-21T05:39:59;15.57;;;1.80;;
51828;SDS011;37881;48.024;8.774;2022-08-21T05:42:46;13.20;;;2.22;;
51828;SDS011;37881;48.024;8.774;2022-08-21T05:45:24;15.93;;;2.88;;
51828;SDS011;37881;48.024;8.774;2022-08-21T05:48:12;8.40;;;2.57;;
51828;SDS011;37881;48.024;8.774;2022-08-21T05:50:42;10.27;;;2.78;;
51828;SDS011;37881;48.024;8.774;2022-08-21T05:53:10;6.45;;;2.60;;
51828;SDS011;37881;48.024;8.774;2022-08-21T05:55:38;5.15;;;2.42;;
51828;SDS011;37881;48.024;8.774;2022-08-21T05:58:15;24.10;;;1.90;;
51828;SDS011;37881;48.024;8.774;2022-08-21T06:00:45;20.97;;;2.03;;
51828;SDS011;37881;48.024;8.774;2022-08-21T06:03:21;18.02;;;1.98;;
51828;SDS011;37881;48.024;8.774;2022-08-21T06:05:51;8.63;;;1.67;;
51828;SDS011;37881;48.024;8.774;2022-08-21T06:08:19;7.03;;;1.70;;
51828;SDS011;37881;48.024;8.774;2022-08-21T06:10:47;5.20;;;1.60;;
51828;SDS011;37881;48.024;8.774;2022-08-21T06:13:15;11.10;;;1.80;;
51828;SDS011;37881;48.024;8.774;2022-08-21T06:15:43;4.38;;;1.70;;
51828;SDS011;37881;48.024;8.774;2022-08-21T06:18:10;8.82;;;1.80;;
51828;SDS011;37881;48.024;8.774;2022-08-21T06:20:38;4.53;;;1.70;;
51828;SDS011;37881;48.024;8.774;2022-08-21T06:23:07;3.42;;;1.80;;
51828;SDS011;37881;48.024;8.774;2022-08-21T06:25:34;2.90;;;1.70;;
51828;SDS011;37881;48.024;8.774;2022-08-21T06:28:05;3.00;;;1.80;;
51828;SDS011;37881;48.024;8.774;2022-08-21T06:30:37;3.35;;;2.05;;
51828;SDS011;37881;48.024;8.774;2022-08-21T06:33:04;3.22;;;1.80;;
51828;SDS011;37881;48.024;8.774;2022-08-21T06:35:33;3.60;;;1.95;;
51828;SDS011;37881;48.024;8.774;2022-08-21T06:38:01;4.43;;;2.30;;
51828;SDS011;37881;48.024;8.774;2022-08-21T06:40:29;5.03;;;2.05;;
51828;SDS011;37881;48.024;8.774;2022-08-21T06:43:11;4.43;;;2.28;;
51828;SDS011;37881;48.024;8.774;2022-08-21T06:45:40;3.85;;;2.20;;
51828;SDS011;37881;48.024;8.774;2022-08-21T06:48:07;4.13;;;2.30;;
51828;SDS011;37881;48.024;8.774;2022-08-21T06:50:34;4.27;;;2.13;;
51828;SDS011;37881;48.024;8.774;2022-08-21T06:53:03;3.22;;;2.33;;
51828;SDS011;37881;48.024;8.774;2022-08-21T06:55:36;3.53;;;2.10;;
51828;SDS011;37881;48.024;8.774;2022-08-21T06:58:03;3.05;;;1.75;;
51828;SDS011;37881;48.024;8.774;2022-08-21T07:00:31;2.50;;;1.60;;
51828;SDS011;37881;48.024;8.774;2022-08-21T07:02:59;4.43;;;1.93;;
51828;SDS011;37881;48.024;8.774;2022-08-21T07:05:26;2.60;;;1.60;;
51828;SDS011;37881;48.024;8.774;2022-08-21T07:07:55;2.85;;;1.40;;
51828;SDS011;37881;48.024;8.774;2022-08-21T07:10:24;3.33;;;2.00;;
51828;SDS011;37881;48.024;8.774;2022-08-21T07:12:52;2.58;;;1.65;;
51828;SDS011;37881;48.024;8.774;2022-08-21T07:15:27;2.93;;;1.60;;
51828;SDS011;37881;48.024;8.774;2022-08-21T07:17:56;4.82;;;1.90;;
51828;SDS011;37881;48.024;8.774;2022-08-21T07:20:25;3.17;;;1.90;;
51828;SDS011;37881;48.024;8.774;2022-08-21T07:22:52;2.97;;;2.00;;
51828;SDS011;37881;48.024;8.774;2022-08-21T07:25:20;3.17;;;2.10;;
51828;SDS011;37881;48.024;8.774;2022-08-21T07:27:46;3.67;;;1.80;;
51828;SDS011;37881;48.024;8.774;2022-08-21T07:30:13;4.00;;;2.00;;
51828;SDS011;37881;48.024;8.774;2022-08-21T07:32:40;5.18;;;2.20;;
51828;SDS011;37881;48.024;8.774;2022-08-21T07:35:07;4.03;;;1.95;;
51828;SDS011;37881;48.024;8.774;2022-08-21T07:37:33;3.40;;;1.90;;
51828;SDS011;37881;48.024;8.774;2022-08-21T07:40:00;4.37;;;2.10;;
51828;SDS011;37881;48.024;8.774;2022-08-21T07:42:27;4.57;;;1.80;;
51828;SDS011;37881;48.024;8.774;2022-08-21T07:44:54;4.00;;;2.10;;
51828;SDS011;37881;48.024;8.774;2022-08-21T07:47:22;4.43;;;2.10;;
51828;SDS011;37881;48.024;8.774;2022-08-21T07:50:08;3.92;;;2.10;;
51828;SDS011;37881;48.024;8.774;2022-08-21T07:52:37;5.07;;;2.10;;
51828;SDS011;37881;48.024;8.774;2022-08-21T07:55:04;3.85;;;1.90;;
51828;SDS011;37881;48.024;8.774;2022-08-21T07:57:32;4.80;;;2.40;;
51828;SDS011;37881;48.024;8.774;2022-08-21T07:59:59;5.63;;;2.30;;
51828;SDS011;37881;48.024;8.774;2022-08-21T08:02:27;5.18;;;2.50;;
51828;SDS011;37881;48.024;8.774;2022-08-21T08:04:59;3.83;;;2.20;;
51828;SDS011;37881;48.024;8.774;2022-08-21T08:07:27;3.83;;;2.00;;
51828;SDS011;37881;48.024;8.774;2022-08-21T08:09:54;4.75;;;2.20;;
51828;SDS011;37881;48.024;8.774;2022-08-21T08:12:21;5.05;;;2.10;;
51828;SDS011;37881;48.024;8.774;2022-08-21T08:14:49;4.22;;;2.30;;
51828;SDS011;37881;48.024;8.774;2022-08-21T08:17:15;4.97;;;2.40;;
51828;SDS011;37881;48.024;8.774;2022-08-21T08:19:42;4.75;;;2.38;;
51828;SDS011;37881;48.024;8.774;2022-08-21T08:22:13;6.93;;;2.60;;
51828;SDS011;37881;48.024;8.774;2022-08-21T08:24:46;4.20;;;2.20;;
51828;SDS011;37881;48.024;8.774;2022-08-21T08:27:14;4.90;;;2.15;;
51828;SDS011;37881;48.024;8.774;2022-08-21T08:29:42;4.00;;;2.10;;
51828;SDS011;37881;48.024;8.774;2022-08-21T08:32:10;3.90;;;2.00;;
51828;SDS011;37881;48.024;8.774;2022-08-21T08:34:37;5.57;;;2.25;;
51828;SDS011;37881;48.024;8.774;2022-08-21T08:37:05;4.13;;;1.95;;
51828;SDS011;37881;48.024;8.774;2022-08-21T08:39:34;5.20;;;2.17;;
51828;SDS011;37881;48.024;8.774;2022-08-21T08:45:00;3.78;;;1.85;;
51828;SDS011;37881;48.024;8.774;2022-08-21T08:47:31;5.35;;;2.00;;
51828;SDS011;37881;48.024;8.774;2022-08-21T08:50:03;4.15;;;1.90;;
51828;SDS011;37881;48.024;8.774;2022-08-21T08:52:52;4.75;;;1.60;;
51828;SDS011;37881;48.024;8.774;2022-08-21T08:55:28;3.30;;;1.50;;
51828;SDS011;37881;48.024;8.774;2022-08-21T08:58:00;2.42;;;1.30;;
51828;SDS011;37881;48.024;8.774;2022-08-21T09:00:29;3.22;;;1.30;;
51828;SDS011;37881;48.024;8.774;2022-08-21T09:02:59;3.22;;;1.40;;
51828;SDS011;37881;48.024;8.774;2022-08-21T09:05:36;4.45;;;1.40;;
51828;SDS011;37881;48.024;8.774;2022-08-21T09:08:57;3.93;;;1.40;;
51828;SDS011;37881;48.024;8.774;2022-08-21T09:12:06;3.35;;;1.42;;
51828;SDS011;37881;48.024;8.774;2022-08-21T09:17:29;4.05;;;1.50;;
51828;SDS011;37881;48.024;8.774;2022-08-21T09:20:09;3.22;;;1.45;;
51828;SDS011;37881;48.024;8.774;2022-08-21T09:25:27;2.58;;;1.20;;
51828;SDS011;37881;48.024;8.774;2022-08-21T09:27:57;3.25;;;1.30;;
51828;SDS011;37881;48.024;8.774;2022-08-21T09:30:28;2.42;;;1.10;;
51828;SDS011;37881;48.024;8.774;2022-08-21T09:32:58;2.92;;;1.20;;
51828;SDS011;37881;48.024;8.774;2022-08-21T09:35:26;2.80;;;1.20;;
51828;SDS011;37881;48.024;8.774;2022-08-21T09:37:54;3.30;;;1.13;;
51828;SDS011;37881;48.024;8.774;2022-08-21T09:40:40;2.95;;;1.20;;
51828;SDS011;37881;48.024;8.774;2022-08-21T09:43:17;3.38;;;1.05;;
51828;SDS011;37881;48.024;8.774;2022-08-21T09:45:45;2.47;;;1.00;;
51828;SDS011;37881;48.024;8.774;2022-08-21T09:48:22;2.57;;;1.10;;
51828;SDS011;37881;48.024;8.774;2022-08-21T09:50:52;2.75;;;1.10;;
51828;SDS011;37881;48.024;8.774;2022-08-21T09:53:21;2.60;;;0.98;;
51828;SDS011;37881;48.024;8.774;2022-08-21T09:55:53;2.47;;;1.02;;
51828;SDS011;37881;48.024;8.774;2022-08-21T09:58:42;2.47;;;1.10;;
51828;SDS011;37881;48.024;8.774;2022-08-21T10:01:14;3.60;;;1.10;;
51828;SDS011;37881;48.024;8.774;2022-08-21T10:03:48;2.88;;;1.10;;
51828;SDS011;37881;48.024;8.774;2022-08-21T10:06:26;2.50;;;1.20;;
51828;SDS011;37881;48.024;8.774;2022-08-21T10:09:11;2.92;;;1.10;;
51828;SDS011;37881;48.024;8.774;2022-08-21T10:11:49;3.20;;;1.10;;
51828;SDS011;37881;48.024;8.774;2022-08-21T10:20:25;2.25;;;1.05;;
51828;SDS011;37881;48.024;8.774;2022-08-21T10:25:50;3.58;;;1.02;;
51828;SDS011;37881;48.024;8.774;2022-08-21T10:29:14;2.63;;;1.00;;
51828;SDS011;37881;48.024;8.774;2022-08-21T10:48:47;2.13;;;0.80;;
51828;SDS011;37881;48.024;8.774;2022-08-21T10:54:05;2.15;;;0.73;;
51828;SDS011;37881;48.024;8.774;2022-08-21T10:56:47;2.37;;;0.70;;
51828;SDS011;37881;48.024;8.774;2022-08-21T10:59:26;2.67;;;0.85;;
51828;SDS011;37881;48.024;8.774;2022-08-21T11:02:21;2.20;;;1.00;;
51828;SDS011;37881;48.024;8.774;2022-08-21T11:04:59;1.80;;;0.70;;
51828;SDS011;37881;48.024;8.774;2022-08-21T11:07:33;2.10;;;0.80;;
51828;SDS011;37881;48.024;8.774;2022-08-21T11:10:05;1.90;;;0.90;;
51828;SDS011;37881;48.024;8.774;2022-08-21T11:18:04;2.05;;;1.10;;
51828;SDS011;37881;48.024;8.774;2022-08-21T11:20:33;3.13;;;1.00;;
51828;SDS011;37881;48.024;8.774;2022-08-21T11:23:31;2.33;;;1.00;;
51828;SDS011;37881;48.024;8.774;2022-08-21T11:26:09;2.85;;;1.10;;
51828;SDS011;37881;48.024;8.774;2022-08-21T11:28:47;2.63;;;1.10;;
51828;SDS011;37881;48.024;8.774;2022-08-21T11:37:01;2.17;;;1.00;;
51828;SDS011;37881;48.024;8.774;2022-08-21T11:39:38;3.00;;;1.20;;
51828;SDS011;37881;48.024;8.774;2022-08-21T11:45:16;2.47;;;1.10;;
51828;SDS011;37881;48.024;8.774;2022-08-21T11:50:49;2.57;;;1.07;;
51828;SDS011;37881;48.024;8.774;2022-08-21T11:53:20;2.00;;;0.88;;
51828;SDS011;37881;48.024;8.774;2022-08-21T11:55:56;2.65;;;1.10;;
51828;SDS011;37881;48.024;8.774;2022-08-21T11:58:43;2.00;;;0.85;;
51828;SDS011;37881;48.024;8.774;2022-08-21T12:01:14;2.55;;;1.10;;
51828;SDS011;37881;48.024;8.774;2022-08-21T12:06:31;3.13;;;1.20;;
51828;SDS011;37881;48.024;8.774;2022-08-21T12:12:10;3.13;;;1.10;;
51828;SDS011;37881;48.024;8.774;2022-08-21T12:17:52;2.60;;;1.13;;
51828;SDS011;37881;48.024;8.774;2022-08-21T12:22:52;2.40;;;1.10;;
51828;SDS011;37881;48.024;8.774;2022-08-21T12:25:21;3.05;;;1.20;;
51828;SDS011;37881;48.024;8.774;2022-08-21T12:27:52;2.97;;;1.20;;
51828;SDS011;37881;48.024;8.774;2022-08-21T12:32:59;2.38;;;1.20;;
51828;SDS011;37881;48.024;8.774;2022-08-21T12:35:31;2.67;;;1.20;;
51828;SDS011;37881;48.024;8.774;2022-08-21T12:41:03;2.83;;;1.30;;
51828;SDS011;37881;48.024;8.774;2022-08-21T12:43:41;2.50;;;1.20;;
51828;SDS011;37881;48.024;8.774;2022-08-21T12:46:18;2.90;;;1.35;;
51828;SDS011;37881;48.024;8.774;2022-08-21T12:48:57;2.40;;;1.30;;
51828;SDS011;37881;48.024;8.774;2022-08-21T12:51:31;3.63;;;1.30;;
51828;SDS011;37881;48.024;8.774;2022-08-21T12:54:22;2.50;;;1.20;;
51828;SDS011;37881;48.024;8.774;2022-08-21T12:57:39;2.83;;;1.20;;
51828;SDS011;37881;48.024;8.774;2022-08-21T12:59:51;2.50;;;1.20;;
51828;SDS011;37881;48.024;8.774;2022-08-21T13:02:20;2.47;;;1.20;;
51828;SDS011;37881;48.024;8.774;2022-08-21T13:04:51;3.08;;;1.33;;
51828;SDS011;37881;48.024;8.774;2022-08-21T13:07:22;3.33;;;1.35;;
51828;SDS011;37881;48.024;8.774;2022-08-21T13:09:54;3.77;;;1.37;;
51828;SDS011;37881;48.024;8.774;2022-08-21T13:12:24;4.05;;;1.40;;
51828;SDS011;37881;48.024;8.774;2022-08-21T13:14:58;3.25;;;1.58;;
51828;SDS011;37881;48.024;8.774;2022-08-21T13:17:34;2.42;;;1.30;;
51828;SDS011;37881;48.024;8.774;2022-08-21T13:20:07;3.13;;;1.50;;
51828;SDS011;37881;48.024;8.774;2022-08-21T13:22:54;2.07;;;1.17;;
51828;SDS011;37881;48.024;8.774;2022-08-21T13:25:24;2.50;;;1.30;;
51828;SDS011;37881;48.024;8.774;2022-08-21T13:28:01;2.80;;;1.45;;
51828;SDS011;37881;48.024;8.774;2022-08-21T13:30:32;3.05;;;1.20;;
51828;SDS011;37881;48.024;8.774;2022-08-21T13:33:01;3.67;;;1.40;;
51828;SDS011;37881;48.024;8.774;2022-08-21T13:38:31;2.35;;;1.40;;
51828;SDS011;37881;48.024;8.774;2022-08-21T13:43:32;2.80;;;1.20;;
51828;SDS011;37881;48.024;8.774;2022-08-21T13:46:02;5.03;;;1.38;;
51828;SDS011;37881;48.024;8.774;2022-08-21T13:48:36;3.20;;;1.47;;
51828;SDS011;37881;48.024;8.774;2022-08-21T13:51:04;2.95;;;1.40;;
51828;SDS011;37881;48.024;8.774;2022-08-21T13:53:36;2.75;;;1.40;;
51828;SDS011;37881;48.024;8.774;2022-08-21T13:56:30;3.03;;;1.60;;
51828;SDS011;37881;48.024;8.774;2022-08-21T13:59:00;2.72;;;1.25;;
51828;SDS011;37881;48.024;8.774;2022-08-21T14:01:30;2.80;;;1.50;;
51828;SDS011;37881;48.024;8.774;2022-08-21T14:04:04;2.78;;;1.48;;
51828;SDS011;37881;48.024;8.774;2022-08-21T14:06:38;2.55;;;1.40;;
51828;SDS011;37881;48.024;8.774;2022-08-21T14:09:12;5.50;;;1.50;;
51828;SDS011;37881;48.024;8.774;2022-08-21T14:11:49;3.20;;;1.70;;
51828;SDS011;37881;48.024;8.774;2022-08-21T14:14:20;3.27;;;1.63;;
51828;SDS011;37881;48.024;8.774;2022-08-21T14:17:01;2.67;;;1.38;;
51828;SDS011;37881;48.024;8.774;2022-08-21T14:19:50;3.97;;;1.40;;
51828;SDS011;37881;48.024;8.774;2022-08-21T14:24:50;4.45;;;1.48;;
51828;SDS011;37881;48.024;8.774;2022-08-21T14:27:28;3.70;;;1.50;;
51828;SDS011;37881;48.024;8.774;2022-08-21T14:29:58;3.08;;;1.63;;
51828;SDS011;37881;48.024;8.774;2022-08-21T14:32:28;3.20;;;1.55;;
51828;SDS011;37881;48.024;8.774;2022-08-21T14:34:58;2.63;;;1.40;;
51828;SDS011;37881;48.024;8.774;2022-08-21T14:37:24;2.95;;;1.70;;
51828;SDS011;37881;48.024;8.774;2022-08-21T14:39:51;4.33;;;1.70;;
51828;SDS011;37881;48.024;8.774;2022-08-21T14:42:19;3.45;;;1.60;;
51828;SDS011;37881;48.024;8.774;2022-08-21T14:44:46;3.85;;;1.63;;
51828;SDS011;37881;48.024;8.774;2022-08-21T14:47:13;3.85;;;1.50;;
51828;SDS011;37881;48.024;8.774;2022-08-21T14:49:40;3.35;;;1.80;;
51828;SDS011;37881;48.024;8.774;2022-08-21T14:52:06;2.97;;;1.63;;
51828;SDS011;37881;48.024;8.774;2022-08-21T14:54:33;2.78;;;1.40;;
51828;SDS011;37881;48.024;8.774;2022-08-21T14:57:02;2.95;;;1.60;;
51828;SDS011;37881;48.024;8.774;2022-08-21T14:59:32;3.10;;;1.45;;
51828;SDS011;37881;48.024;8.774;2022-08-21T15:02:00;4.07;;;1.50;;
51828;SDS011;37881;48.024;8.774;2022-08-21T15:04:27;3.23;;;1.50;;
51828;SDS011;37881;48.024;8.774;2022-08-21T15:06:54;2.83;;;1.42;;
51828;SDS011;37881;48.024;8.774;2022-08-21T15:09:21;4.45;;;1.60;;
51828;SDS011;37881;48.024;8.774;2022-08-21T15:11:48;3.50;;;1.70;;
51828;SDS011;37881;48.024;8.774;2022-08-21T15:14:20;3.33;;;1.60;;
51828;SDS011;37881;48.024;8.774;2022-08-21T15:16:49;3.30;;;1.43;;
51828;SDS011;37881;48.024;8.774;2022-08-21T15:19:16;2.72;;;1.40;;
51828;SDS011;37881;48.024;8.774;2022-08-21T15:21:43;3.20;;;1.80;;
51828;SDS011;37881;48.024;8.774;2022-08-21T15:24:10;3.22;;;1.50;;
51828;SDS011;37881;48.024;8.774;2022-08-21T15:26:37;2.97;;;1.63;;
51828;SDS011;37881;48.024;8.774;2022-08-21T15:29:04;3.70;;;1.77;;
51828;SDS011;37881;48.024;8.774;2022-08-21T15:31:32;4.03;;;1.40;;
51828;SDS011;37881;48.024;8.774;2022-08-21T15:34:00;3.03;;;1.50;;
51828;SDS011;37881;48.024;8.774;2022-08-21T15:36:27;3.10;;;1.58;;
51828;SDS011;37881;48.024;8.774;2022-08-21T15:38:54;3.28;;;1.75;;
51828;SDS011;37881;48.024;8.774;2022-08-21T15:41:21;2.90;;;1.40;;
51828;SDS011;37881;48.024;8.774;2022-08-21T15:43:49;3.08;;;1.58;;
51828;SDS011;37881;48.024;8.774;2022-08-21T15:46:17;3.88;;;1.77;;
51828;SDS011;37881;48.024;8.774;2022-08-21T15:48:46;3.13;;;1.50;;
51828;SDS011;37881;48.024;8.774;2022-08-21T15:51:14;2.75;;;1.48;;
51828;SDS011;37881;48.024;8.774;2022-08-21T15:53:43;3.20;;;1.70;;
51828;SDS011;37881;48.024;8.774;2022-08-21T15:56:56;3.97;;;1.77;;
51828;SDS011;37881;48.024;8.774;2022-08-21T15:59:04;3.17;;;1.80;;
51828;SDS011;37881;48.024;8.774;2022-08-21T16:01:36;2.90;;;1.70;;
51828;SDS011;37881;48.024;8.774;2022-08-21T16:04:11;3.10;;;1.80;;
51828;SDS011;37881;48.024;8.774;2022-08-21T16:06:44;2.97;;;1.60;;
51828;SDS011;37881;48.024;8.774;2022-08-21T16:09:22;3.47;;;1.63;;
51828;SDS011;37881;48.024;8.774;2022-08-21T16:11:49;3.80;;;1.65;;
51828;SDS011;37881;48.024;8.774;2022-08-21T16:14:17;3.70;;;1.75;;
51828;SDS011;37881;48.024;8.774;2022-08-21T16:16:44;3.88;;;1.90;;
51828;SDS011;37881;48.024;8.774;2022-08-21T16:19:11;3.53;;;1.80;;
51828;SDS011;37881;48.024;8.774;2022-08-21T16:21:39;4.90;;;1.70;;
51828;SDS011;37881;48.024;8.774;2022-08-21T16:24:06;3.10;;;1.80;;
51828;SDS011;37881;48.024;8.774;2022-08-21T16:26:33;5.70;;;1.90;;